createdAt,value
2018-04-12T00:01:21.522Z,94143
2018-04-12T00:03:50.572Z,94130
2018-04-12T00:06:19.603Z,94132
2018-04-12T00:08:49.462Z,94129
2018-04-12T00:11:18.509Z,94114
2018-04-12T00:13:48.296Z,94113
2018-04-12T00:16:17.394Z,94123
2018-04-12T00:18:46.723Z,94107
2018-04-12T00:21:15.761Z,94117
2018-04-12T00:23:44.817Z,94102
2018-04-12T00:26:13.846Z,94099
2018-04-12T00:28:42.933Z,94107
2018-04-12T00:31:11.959Z,94108
2018-04-12T00:33:40.995Z,94089
2018-04-12T00:36:10.049Z,94095
2018-04-12T00:38:39.150Z,94093
2018-04-12T00:41:08.190Z,94082
2018-04-12T00:43:37.233Z,94091
2018-04-12T00:46:06.272Z,94077
2018-04-12T00:48:35.353Z,94065
2018-04-12T00:51:05.135Z,94061
2018-04-12T00:53:51.832Z,94058
2018-04-12T00:56:22.077Z,94043
2018-04-12T00:58:52.100Z,94046
2018-04-12T01:01:21.148Z,94039
2018-04-12T01:03:50.171Z,94038
2018-04-12T01:06:19.234Z,94028
2018-04-12T01:08:48.278Z,94022
2018-04-12T01:11:18.122Z,94013
2018-04-12T01:13:47.173Z,94001
2018-04-12T01:16:17.006Z,94007
2018-04-12T01:18:46.082Z,94011
2018-04-12T01:21:15.150Z,94021
2018-04-12T01:23:44.173Z,94033
2018-04-12T01:26:13.988Z,94035
2018-04-12T01:28:43.022Z,94040
2018-04-12T01:31:12.072Z,94039
2018-04-12T01:33:41.897Z,94036
2018-04-12T01:36:11.594Z,94065
2018-04-12T01:38:40.669Z,94022
2018-04-12T01:41:09.707Z,94029
2018-04-12T01:43:38.770Z,94017
2018-04-12T01:46:08.591Z,94019
2018-04-12T01:48:37.646Z,94020
2018-04-12T01:51:06.664Z,94023
2018-04-12T01:53:36.489Z,94032
2018-04-12T01:56:05.536Z,94039
2018-04-12T01:58:34.593Z,94035
2018-04-12T02:01:03.622Z,94040
2018-04-12T02:03:32.689Z,94035
2018-04-12T02:06:01.713Z,94032
2018-04-12T02:08:30.779Z,94023
2018-04-12T02:10:59.810Z,94027
2018-04-12T02:13:28.860Z,94013
2018-04-12T02:15:57.894Z,94011
2018-04-12T02:18:26.955Z,94017
2018-04-12T02:20:55.985Z,94022
2018-04-12T02:23:25.058Z,94021
2018-04-12T02:25:54.090Z,94022
2018-04-12T02:28:23.141Z,94017
2018-04-12T02:30:52.188Z,94014
2018-04-12T02:33:22.015Z,94022
2018-04-12T02:35:51.283Z,94002
2018-04-12T02:38:20.346Z,94007
2018-04-12T02:40:49.397Z,94009
2018-04-12T02:43:18.484Z,94000
2018-04-12T02:45:47.523Z,94009
2018-04-12T02:48:16.555Z,94002
2018-04-12T02:50:45.676Z,93999
2018-04-12T02:53:14.644Z,93987
2018-04-12T02:55:44.484Z,93990
2018-04-12T02:58:13.525Z,93979
2018-04-12T03:00:42.566Z,93978
2018-04-12T03:03:11.614Z,93979
2018-04-12T03:05:40.639Z,93984
2018-04-12T03:08:10.456Z,93979
2018-04-12T03:10:39.518Z,93982
2018-04-12T03:13:08.541Z,93978
2018-04-12T03:15:37.606Z,93982
2018-04-12T03:18:06.630Z,93977
2018-04-12T03:20:35.711Z,93980
2018-04-12T03:23:04.762Z,93986
2018-04-12T03:25:33.843Z,93987
2018-04-12T03:28:02.891Z,93986
2018-04-12T03:30:32.736Z,93986
2018-04-12T03:33:01.790Z,93989
2018-04-12T03:35:31.593Z,93990
2018-04-12T03:38:00.645Z,93969
2018-04-12T03:40:29.656Z,93973
2018-04-12T03:42:58.720Z,93972
2018-04-12T03:45:27.746Z,93976
2018-04-12T03:47:56.760Z,93975
2018-04-12T03:50:26.616Z,93972
2018-04-12T03:52:55.649Z,93978
2018-04-12T03:55:24.691Z,93976
2018-04-12T03:57:53.765Z,93970
2018-04-12T04:00:23.554Z,93974
2018-04-12T04:02:52.618Z,93969
2018-04-12T04:05:21.649Z,93963
2018-04-12T04:07:51.461Z,93961
2018-04-12T04:10:20.485Z,93956
2018-04-12T04:12:49.536Z,93966
2018-04-12T04:15:37.136Z,93964
2018-04-12T04:18:23.813Z,93963
2018-04-12T04:23:52.822Z,93962
2018-04-12T04:26:21.844Z,93961
2018-04-12T04:28:50.934Z,93951
2018-04-12T04:31:19.981Z,93954
2018-04-12T04:33:49.048Z,93956
2018-04-12T04:36:18.075Z,93966
2018-04-12T04:38:47.129Z,93958
2018-04-12T04:41:16.163Z,93965
2018-04-12T04:43:45.264Z,93962
2018-04-12T04:46:29.931Z,93965
2018-04-12T04:49:00.271Z,93974
2018-04-12T04:51:29.298Z,93970
2018-04-12T04:53:58.373Z,93979
2018-04-12T04:56:27.429Z,93973
2018-04-12T04:58:56.492Z,93978
2018-04-12T05:01:25.543Z,93978
2018-04-12T05:03:54.592Z,93977
2018-04-12T05:06:24.393Z,93975
2018-04-12T05:08:53.469Z,93968
2018-04-12T05:11:22.499Z,93974
2018-04-12T05:13:53.109Z,93985
2018-04-12T05:16:22.155Z,93983
2018-04-12T05:18:51.206Z,93998
2018-04-12T05:21:21.051Z,93995
2018-04-12T05:23:50.844Z,94000
2018-04-12T05:26:19.957Z,93997
2018-04-12T05:28:48.986Z,94006
2018-04-12T05:31:18.022Z,93997
2018-04-12T05:33:47.876Z,93992
2018-04-12T05:36:16.967Z,94003
2018-04-12T05:38:46.013Z,93883
2018-04-12T05:41:15.055Z,93994
2018-04-12T05:43:44.873Z,93991
2018-04-12T05:46:13.903Z,93994
2018-04-12T05:48:43.746Z,93986
2018-04-12T05:51:12.821Z,93989
2018-04-12T05:53:42.696Z,93989
2018-04-12T05:56:11.766Z,93991
2018-04-12T05:58:40.811Z,93972
2018-04-12T06:01:10.610Z,93975
2018-04-12T06:03:39.665Z,93986
2018-04-12T06:06:08.710Z,93979
2018-04-12T06:08:37.807Z,93978
2018-04-12T06:11:07.599Z,93988
2018-04-12T06:13:36.626Z,93980
2018-04-12T06:16:06.466Z,93984
2018-04-12T06:18:35.484Z,93985
2018-04-12T06:21:04.520Z,93984
2018-04-12T06:23:34.381Z,93988
2018-04-12T06:26:03.414Z,93994
2018-04-12T06:28:33.231Z,93984
2018-04-12T06:31:03.062Z,93992
2018-04-12T06:33:32.123Z,93998
2018-04-12T06:36:01.183Z,93993
2018-04-12T06:38:30.211Z,94002
2018-04-12T06:40:59.286Z,93999
2018-04-12T06:43:28.303Z,94003
2018-04-12T06:45:57.317Z,93998
2018-04-12T06:48:26.389Z,93995
2018-04-12T06:50:55.437Z,93980
2018-04-12T06:53:24.458Z,93979
2018-04-12T06:55:53.545Z,93988
2018-04-12T06:58:22.557Z,93983
2018-04-12T07:00:51.615Z,93985
2018-04-12T07:03:20.642Z,93983
2018-04-12T07:05:49.717Z,93987
2018-04-12T07:08:18.802Z,93984
2018-04-12T07:10:47.870Z,93986
2018-04-12T07:13:17.743Z,93965
2018-04-12T07:15:46.782Z,93960
2018-04-12T07:18:15.886Z,93944
2018-04-12T07:20:44.918Z,93936
2018-04-12T07:23:13.978Z,93948
2018-04-12T07:25:43.012Z,93956
2018-04-12T07:28:12.386Z,93954
2018-04-12T07:30:41.465Z,93968
2018-04-12T07:33:10.546Z,93983
2018-04-12T07:35:39.607Z,93992
2018-04-12T07:38:08.638Z,93993
2018-04-12T07:40:37.797Z,93990
2018-04-12T07:43:06.853Z,94002
2018-04-12T07:45:35.973Z,94000
2018-04-12T07:48:05.088Z,94007
2018-04-12T07:50:34.158Z,94012
2018-04-12T07:53:03.176Z,94016
2018-04-12T07:55:32.225Z,94024
2018-04-12T07:58:01.245Z,93961
2018-04-12T08:00:31.424Z,94053
2018-04-12T08:03:00.441Z,94050
2018-04-12T08:05:29.505Z,94057
2018-04-12T08:07:58.584Z,94084
2018-04-12T08:10:27.634Z,94085
2018-04-12T08:12:56.658Z,94092
2018-04-12T08:15:25.701Z,94091
2018-04-12T08:17:54.719Z,94103
2018-04-12T08:20:23.774Z,94108
2018-04-12T08:22:52.798Z,94111
2018-04-12T08:25:21.876Z,94125
2018-04-12T08:27:50.906Z,94118
2018-04-12T08:30:19.967Z,94114
2018-04-12T08:32:49.029Z,94040
2018-04-12T08:35:18.061Z,94122
2018-04-12T08:37:47.229Z,94137
2018-04-12T08:40:16.261Z,94136
2018-04-12T08:42:45.276Z,94146
2018-04-12T08:45:14.323Z,94154
2018-04-12T08:47:43.354Z,94141
2018-04-12T08:50:12.414Z,94151
2018-04-12T08:52:41.453Z,94142
2018-04-12T08:55:10.525Z,94147
2018-04-12T08:57:39.550Z,94165
2018-04-12T09:00:08.610Z,94172
2018-04-12T09:02:37.674Z,94171
2018-04-12T09:05:06.749Z,94161
2018-04-12T09:07:35.799Z,94167
2018-04-12T09:10:04.830Z,94171
2018-04-12T09:12:33.943Z,94155
2018-04-12T09:15:03.733Z,94158
2018-04-12T09:17:32.787Z,94141
2018-04-12T09:20:01.886Z,94142
2018-04-12T09:22:30.908Z,94140
2018-04-12T09:24:59.960Z,94167
2018-04-12T09:27:29.031Z,94137
2018-04-12T09:29:58.050Z,94142
2018-04-12T09:32:27.083Z,94140
2018-04-12T09:34:56.154Z,94137
2018-04-12T09:37:25.189Z,94137
2018-04-12T09:39:54.244Z,94131
2018-04-12T09:42:23.275Z,94135
2018-04-12T09:44:52.334Z,94125
2018-04-12T09:47:21.354Z,94150
2018-04-12T09:49:50.379Z,94124
2018-04-12T09:52:20.186Z,94116
2018-04-12T09:54:49.341Z,94122
2018-04-12T09:57:18.365Z,94103
2018-04-12T09:59:47.439Z,94115
2018-04-12T10:02:16.481Z,94102
2018-04-12T10:04:51.118Z,94112
2018-04-12T10:07:20.145Z,94100
2018-04-12T10:09:49.158Z,94114
2018-04-12T10:12:18.238Z,94125
2018-04-12T10:14:47.274Z,94129
2018-04-12T10:17:17.074Z,94138
2018-04-12T10:19:46.906Z,94138
2018-04-12T10:22:15.937Z,94133
2018-04-12T10:24:44.985Z,94129
2018-04-12T10:27:14.802Z,94138
2018-04-12T10:29:43.838Z,94137
2018-04-12T10:32:12.882Z,94147
2018-04-12T10:34:42.756Z,94148
2018-04-12T10:37:11.805Z,94147
2018-04-12T10:39:40.838Z,94141
2018-04-12T10:42:09.918Z,94145
2018-04-12T10:44:39.087Z,94143
2018-04-12T10:47:09.446Z,94155
2018-04-12T10:49:39.333Z,94149
2018-04-12T10:52:08.399Z,94152
2018-04-12T10:54:37.473Z,94150
2018-04-12T10:57:06.797Z,94150
2018-04-12T10:59:35.865Z,94155
2018-04-12T11:02:04.924Z,94165
2018-04-12T11:04:34.372Z,94167
2018-04-12T11:07:03.565Z,94173
2018-04-12T11:09:32.775Z,94186
2018-04-12T11:12:02.844Z,94192
2018-04-12T11:14:31.888Z,94198
2018-04-12T11:17:01.056Z,94201
2018-04-12T11:19:30.901Z,94206
2018-04-12T11:21:59.927Z,94214
2018-04-12T11:24:29.379Z,94214
2018-04-12T11:26:58.600Z,94208
2018-04-12T11:29:28.438Z,94202
2018-04-12T11:31:57.457Z,94202
2018-04-12T11:34:26.542Z,94210
2018-04-12T11:36:55.810Z,94206
2018-04-12T11:39:24.841Z,94209
2018-04-12T11:41:53.910Z,94221
2018-04-12T11:44:22.996Z,94224
2018-04-12T11:46:52.829Z,94225
2018-04-12T11:49:21.910Z,94218
2018-04-12T11:51:50.993Z,94234
2018-04-12T11:54:20.026Z,94178
2018-04-12T11:56:49.109Z,94241
2018-04-12T11:59:18.122Z,94242
2018-04-12T12:01:47.180Z,94234
2018-04-12T12:04:17.176Z,94242
2018-04-12T12:06:46.343Z,94247
2018-04-12T12:09:15.369Z,94255
2018-04-12T12:11:44.460Z,94256
2018-04-12T12:14:13.504Z,94248
2018-04-12T12:16:43.413Z,94241
2018-04-12T12:19:12.449Z,94238
2018-04-12T12:21:41.522Z,94243
2018-04-12T12:24:10.544Z,94202
2018-04-12T12:26:39.616Z,94250
2018-04-12T12:29:09.962Z,94258
2018-04-12T12:31:39.939Z,94261
2018-04-12T12:34:11.195Z,94259
2018-04-12T12:36:40.255Z,94263
2018-04-12T12:39:09.357Z,94255
2018-04-12T12:41:38.409Z,94247
2018-04-12T12:44:07.724Z,94255
2018-04-12T12:46:36.743Z,94258
2018-04-12T12:49:06.573Z,94261
2018-04-12T12:51:35.626Z,94263
2018-04-12T12:54:06.598Z,94249
2018-04-12T12:56:35.629Z,94253
2018-04-12T12:59:04.704Z,94253
2018-04-12T13:01:33.745Z,94262
2018-04-12T13:04:02.793Z,94252
2018-04-12T13:06:31.834Z,94247
2018-04-12T13:09:00.906Z,94263
2018-04-12T13:11:29.949Z,94256
2018-04-12T13:13:59.800Z,94256
2018-04-12T13:16:29.218Z,94256
2018-04-12T13:18:58.303Z,94265
2018-04-12T13:21:27.329Z,94253
2018-04-12T13:23:56.364Z,94252
2018-04-12T13:26:25.422Z,94252
2018-04-12T13:28:55.225Z,94245
2018-04-12T13:31:24.295Z,94243
2018-04-12T13:33:53.328Z,94245
2018-04-12T13:36:23.171Z,94250
2018-04-12T13:38:52.195Z,94249
2018-04-12T13:41:21.286Z,94253
2018-04-12T13:43:50.319Z,94253
2018-04-12T13:46:19.361Z,94261
2018-04-12T13:48:48.418Z,94255
2018-04-12T13:51:17.450Z,94251
2018-04-12T13:53:46.480Z,94246
2018-04-12T13:56:15.574Z,94248
2018-04-12T13:58:44.610Z,94262
2018-04-12T14:01:13.677Z,94251
2018-04-12T14:03:44.332Z,94247
2018-04-12T14:06:14.156Z,94245
2018-04-12T14:08:43.206Z,94247
2018-04-12T14:11:12.290Z,94237
2018-04-12T14:13:41.348Z,94243
2018-04-12T14:16:10.439Z,94235
2018-04-12T14:18:39.475Z,94233
2018-04-12T14:21:08.538Z,94229
2018-04-12T14:23:37.552Z,94229
2018-04-12T14:26:06.625Z,94240
2018-04-12T14:28:35.672Z,94230
2018-04-12T14:31:04.729Z,94234
2018-04-12T14:33:33.753Z,94227
2018-04-12T14:36:03.958Z,94228
2018-04-12T14:38:32.947Z,94222
2018-04-12T14:41:02.028Z,94223
2018-04-12T14:43:32.038Z,94219
2018-04-12T14:46:01.299Z,94216
2018-04-12T14:48:31.099Z,94222
2018-04-12T14:51:00.190Z,94223
2018-04-12T14:53:30.019Z,94224
2018-04-12T14:55:59.053Z,94226
2018-04-12T14:58:28.120Z,94219
2018-04-12T15:00:57.200Z,94219
2018-04-12T15:03:26.225Z,94212
2018-04-12T15:05:55.290Z,94213
2018-04-12T15:08:25.092Z,94212
2018-04-12T15:10:54.187Z,94209
2018-04-12T15:13:23.221Z,94212
2018-04-12T15:15:52.285Z,94207
2018-04-12T15:18:22.065Z,94205
2018-04-12T15:20:51.121Z,94205
2018-04-12T15:23:20.149Z,94204
2018-04-12T15:25:49.472Z,94199
2018-04-12T15:28:18.534Z,94201
2018-04-12T15:30:47.613Z,94212
2018-04-12T15:33:16.659Z,94219
2018-04-12T15:35:46.637Z,94212
2018-04-12T15:38:15.682Z,94205
2018-04-12T15:40:44.810Z,94215
2018-04-12T15:43:13.840Z,94214
2018-04-12T15:45:42.864Z,94212
2018-04-12T15:48:12.710Z,94210
2018-04-12T15:50:41.736Z,94208
2018-04-12T15:53:10.752Z,94202
2018-04-12T15:55:39.808Z,94198
2018-04-12T15:58:08.909Z,94207
2018-04-12T16:00:37.954Z,94196
2018-04-12T16:03:07.289Z,94192
2018-04-12T16:05:36.147Z,94206
2018-04-12T16:08:05.020Z,94200
2018-04-12T16:10:33.889Z,94109
2018-04-12T16:13:02.817Z,94201
2018-04-12T16:15:31.726Z,94206
2018-04-12T16:18:00.465Z,94208
2018-04-12T16:20:29.696Z,94226
2018-04-12T16:22:58.778Z,94205
2018-04-12T16:25:28.088Z,94197
2018-04-12T16:27:57.394Z,94201
2018-04-12T16:30:26.470Z,94202
2018-04-12T16:32:55.555Z,94205
2018-04-12T16:35:26.773Z,94211
2018-04-12T16:37:55.814Z,94209
2018-04-12T16:40:25.621Z,94216
2018-04-12T16:42:55.091Z,94212
2018-04-12T16:45:24.454Z,94218
2018-04-12T16:47:56.698Z,94220
2018-04-12T16:50:25.947Z,94219
2018-04-12T16:52:55.092Z,94214
2018-04-12T16:55:24.220Z,94228
2018-04-12T16:57:53.277Z,94220
2018-04-12T17:00:22.372Z,94216
2018-04-12T17:02:51.764Z,94218
2018-04-12T17:05:20.793Z,94228
2018-04-12T17:07:49.987Z,94234
2018-04-12T17:10:19.041Z,94227
2018-04-12T17:12:48.222Z,94228
2018-04-12T17:15:18.097Z,94226
2018-04-12T17:17:47.343Z,94234
2018-04-12T17:20:16.722Z,94226
2018-04-12T17:22:45.737Z,94221
2018-04-12T17:25:14.765Z,94223
2018-04-12T17:27:44.593Z,94218
2018-04-12T17:30:13.730Z,94213
2018-04-12T17:32:42.815Z,94217
2018-04-12T17:35:11.874Z,94219
2018-04-12T17:37:41.972Z,94221
2018-04-12T17:40:11.862Z,94228
2018-04-12T17:42:40.951Z,94223
2018-04-12T17:45:10.163Z,94225
2018-04-12T17:47:39.206Z,94227
2018-04-12T17:50:09.334Z,94214
2018-04-12T17:52:38.358Z,94223
2018-04-12T17:55:07.414Z,94217
2018-04-12T17:57:36.513Z,94214
2018-04-12T18:00:05.543Z,94219
2018-04-12T18:02:34.678Z,94219
2018-04-12T18:05:04.467Z,94219
2018-04-12T18:07:33.546Z,94234
2018-04-12T18:10:02.581Z,94231
2018-04-12T18:12:32.387Z,94222
2018-04-12T18:15:01.464Z,94228
2018-04-12T18:17:30.480Z,94231
2018-04-12T18:19:59.656Z,94239
2018-04-12T18:22:28.697Z,94238
2018-04-12T18:24:57.742Z,94233
2018-04-12T18:27:26.830Z,94237
2018-04-12T18:29:55.851Z,94241
2018-04-12T18:32:24.997Z,94238
2018-04-12T18:34:54.055Z,94269
2018-04-12T18:37:23.096Z,94250
2018-04-12T18:39:52.108Z,94244
2018-04-12T18:42:21.190Z,94253
2018-04-12T18:44:50.251Z,94249
2018-04-12T18:47:19.269Z,94246
2018-04-12T18:49:48.322Z,94248
2018-04-12T18:52:17.347Z,94248
2018-04-12T18:54:46.439Z,94256
2018-04-12T18:57:15.505Z,94255
2018-04-12T18:59:44.555Z,94255
2018-04-12T19:02:13.921Z,94259
2018-04-12T19:04:43.847Z,94264
2018-04-12T19:07:12.906Z,94264
2018-04-12T19:09:41.976Z,94266
2018-04-12T19:12:11.694Z,94250
2018-04-12T19:14:42.301Z,94264
2018-04-12T19:17:11.363Z,94250
2018-04-12T19:19:40.502Z,94259
2018-04-12T19:22:09.548Z,94244
2018-04-12T19:24:38.619Z,94255
2018-04-12T19:27:07.633Z,94269
2018-04-12T19:29:37.970Z,94258
2018-04-12T19:32:07.258Z,94253
2018-04-12T19:34:36.716Z,94246
2018-04-12T19:37:05.778Z,94246
2018-04-12T19:39:34.853Z,94245
2018-04-12T19:42:05.854Z,94237
2018-04-12T19:44:34.925Z,94245
2018-04-12T19:47:04.897Z,94248
2018-04-12T19:49:33.988Z,94261
2018-04-12T19:52:03.021Z,94258
2018-04-12T19:54:32.815Z,94265
2018-04-12T19:57:01.871Z,94263
2018-04-12T19:59:31.117Z,94266
2018-04-12T20:02:00.172Z,94263
2018-04-12T20:04:29.197Z,94261
2018-04-12T20:06:58.301Z,94259
2018-04-12T20:09:27.316Z,94256
2018-04-12T20:11:56.520Z,94261
2018-04-12T20:14:25.576Z,94263
2018-04-12T20:16:54.630Z,94266
2018-04-12T20:19:23.682Z,94261
2018-04-12T20:21:53.535Z,94262
2018-04-12T20:24:22.873Z,94268
2018-04-12T20:26:52.001Z,94266
2018-04-12T20:29:21.821Z,94265
2018-04-12T20:31:50.962Z,94264
2018-04-12T20:34:20.016Z,94268
2018-04-12T20:36:49.062Z,94264
2018-04-12T20:39:18.117Z,94254
2018-04-12T20:41:47.179Z,94256
2018-04-12T20:44:17.002Z,94253
2018-04-12T20:46:46.026Z,94249
2018-04-12T20:49:15.084Z,94258
2018-04-12T20:51:44.131Z,94256
2018-04-12T20:54:13.194Z,94253
2018-04-12T20:56:42.222Z,94250
2018-04-12T20:59:11.277Z,94252
2018-04-12T21:01:40.335Z,94249
2018-04-12T21:04:10.173Z,94247
2018-04-12T21:06:39.197Z,93683
2018-04-12T21:09:08.259Z,94248
2018-04-12T21:11:37.313Z,94250
2018-04-12T21:14:06.423Z,94247
2018-04-12T21:16:36.294Z,94241
2018-04-12T21:19:05.333Z,94244
2018-04-12T21:21:34.360Z,94243
2018-04-12T21:24:03.422Z,94241
2018-04-12T21:26:33.222Z,94248
2018-04-12T21:29:02.308Z,94247
2018-04-12T21:31:31.358Z,94252
2018-04-12T21:34:00.413Z,94257
2018-04-12T21:36:30.206Z,94254
2018-04-12T21:38:59.675Z,94254
2018-04-12T21:41:30.562Z,94249
2018-04-12T21:43:59.928Z,94254
2018-04-12T21:46:29.108Z,94248
2018-04-12T21:51:33.460Z,94256
2018-04-12T21:54:03.110Z,94252
2018-04-12T21:56:32.157Z,94251
2018-04-12T21:59:01.212Z,94259
2018-04-12T22:01:30.397Z,94260
2018-04-12T22:03:59.452Z,94266
2018-04-12T22:06:28.512Z,94263
2018-04-12T22:08:57.594Z,94263
2018-04-12T22:11:26.623Z,94267
2018-04-12T22:13:55.689Z,94263
2018-04-12T22:16:24.720Z,94268
2018-04-12T22:18:53.762Z,94267
2018-04-12T22:21:22.831Z,94254
2018-04-12T22:23:52.640Z,94265
2018-04-12T22:26:21.699Z,94266
2018-04-12T22:28:50.731Z,94271
2018-04-12T22:31:20.548Z,94270
2018-04-12T22:33:49.609Z,94277
2018-04-12T22:36:18.679Z,94268
2018-04-12T22:38:47.751Z,94271
2018-04-12T22:41:16.788Z,94275
2018-04-12T22:43:45.870Z,94270
2018-04-12T22:46:14.907Z,94282
2018-04-12T22:48:44.741Z,94275
2018-04-12T22:51:14.579Z,94273
2018-04-12T22:53:44.001Z,94276
2018-04-12T22:56:14.423Z,94275
2018-04-12T22:58:43.490Z,94277
2018-04-12T23:01:12.542Z,94277
2018-04-12T23:03:41.590Z,94275
2018-04-12T23:06:10.597Z,94270
2018-04-12T23:08:39.669Z,94273
2018-04-12T23:11:08.710Z,94273
2018-04-12T23:13:37.739Z,94260
2018-04-12T23:16:06.798Z,94266
2018-04-12T23:18:36.573Z,94273
2018-04-12T23:21:05.628Z,94261
2018-04-12T23:23:34.674Z,94257
2018-04-12T23:26:04.981Z,94266
2018-04-12T23:28:34.200Z,94266
2018-04-12T23:31:03.447Z,94266
2018-04-12T23:33:32.478Z,94279
2018-04-12T23:36:01.640Z,94283
2018-04-12T23:38:30.728Z,94272
2018-04-12T23:41:00.074Z,94282
2018-04-12T23:43:30.085Z,94275
2018-04-12T23:45:59.547Z,94300
2018-04-12T23:48:28.686Z,94266
2018-04-12T23:50:57.753Z,94267
2018-04-12T23:53:26.782Z,94265
2018-04-12T23:55:55.815Z,94260
2018-04-12T23:58:24.877Z,94275
